sensor_id;sensor_type;location;lat;lon;timestamp;pressure;altitude;pressure_sealevel;temperature;humidity
61573;BME280;47465;43.094;12.434;2023-07-29T00:02:48;98645.19;;;21.83;100.00
61573;BME280;47465;43.094;12.434;2023-07-29T00:05:20;98636.56;;;21.78;100.00
61573;BME280;47465;43.094;12.434;2023-07-29T00:07:47;98629.91;;;21.71;100.00
61573;BME280;47465;43.094;12.434;2023-07-29T00:10:22;98628.44;;;21.78;100.00
61573;BME280;47465;43.094;12.434;2023-07-29T00:12:54;98631.91;;;21.80;100.00
61573;BME280;47465;43.094;12.434;2023-07-29T00:15:20;98640.03;;;21.80;100.00
61573;BME280;47465;43.094;12.434;2023-07-29T00:17:46;98648.75;;;21.84;100.00
61573;BME280;47465;43.094;12.434;2023-07-29T00:20:11;98627.47;;;21.79;100.00
61573;BME280;47465;43.094;12.434;2023-07-29T00:22:37;98620.34;;;21.78;100.00
61573;BME280;47465;43.094;12.434;2023-07-29T00:25:04;98630.47;;;21.87;100.00
61573;BME280;47465;43.094;12.434;2023-07-29T00:27:30;98631.31;;;21.88;100.00
61573;BME280;47465;43.094;12.434;2023-07-29T00:29:57;98635.81;;;22.00;100.00
61573;BME280;47465;43.094;12.434;2023-07-29T00:32:23;98625.09;;;21.99;100.00
61573;BME280;47465;43.094;12.434;2023-07-29T00:34:48;98605.97;;;21.89;100.00
61573;BME280;47465;43.094;12.434;2023-07-29T00:37:14;98607.47;;;21.93;100.00
61573;BME280;47465;43.094;12.434;2023-07-29T00:39:40;98597.50;;;21.93;100.00
61573;BME280;47465;43.094;12.434;2023-07-29T00:42:06;98618.34;;;22.04;100.00
61573;BME280;47465;43.094;12.434;2023-07-29T00:44:32;98625.38;;;22.07;100.00
61573;BME280;47465;43.094;12.434;2023-07-29T00:47:01;98611.31;;;22.02;100.00
61573;BME280;47465;43.094;12.434;2023-07-29T00:49:28;98612.91;;;21.93;100.00
61573;BME280;47465;43.094;12.434;2023-07-29T00:51:54;98603.22;;;21.78;100.00
61573;BME280;47465;43.094;12.434;2023-07-29T00:54:20;98619.47;;;21.78;100.00
61573;BME280;47465;43.094;12.434;2023-07-29T00:56:47;98622.59;;;21.60;100.00
61573;BME280;47465;43.094;12.434;2023-07-29T00:59:13;98621.44;;;21.51;100.00
61573;BME280;47465;43.094;12.434;2023-07-29T01:01:39;98624.13;;;21.51;100.00
61573;BME280;47465;43.094;12.434;2023-07-29T01:04:06;98622.75;;;21.33;100.00
61573;BME280;47465;43.094;12.434;2023-07-29T01:06:40;98632.06;;;21.42;100.00
61573;BME280;47465;43.094;12.434;2023-07-29T01:09:10;98617.03;;;21.25;100.00
61573;BME280;47465;43.094;12.434;2023-07-29T01:11:44;98624.63;;;21.20;100.00
61573;BME280;47465;43.094;12.434;2023-07-29T01:14:23;98620.41;;;21.16;100.00
61573;BME280;47465;43.094;12.434;2023-07-29T01:16:59;98629.53;;;21.15;100.00
61573;BME280;47465;43.094;12.434;2023-07-29T01:19:40;98629.97;;;21.08;100.00
61573;BME280;47465;43.094;12.434;2023-07-29T01:22:08;98624.88;;;21.04;100.00
61573;BME280;47465;43.094;12.434;2023-07-29T01:24:37;98609.44;;;20.93;100.00
61573;BME280;47465;43.094;12.434;2023-07-29T01:27:03;98622.06;;;20.92;100.00
61573;BME280;47465;43.094;12.434;2023-07-29T01:29:30;98622.53;;;20.86;100.00
61573;BME280;47465;43.094;12.434;2023-07-29T01:32:00;98618.19;;;20.84;100.00
61573;BME280;47465;43.094;12.434;2023-07-29T01:34:31;98628.22;;;20.95;100.00
61573;BME280;47465;43.094;12.434;2023-07-29T01:36:59;98623.16;;;20.90;100.00
61573;BME280;47465;43.094;12.434;2023-07-29T01:39:29;98618.19;;;20.84;100.00
61573;BME280;47465;43.094;12.434;2023-07-29T01:41:57;98608.03;;;20.75;100.00
61573;BME280;47465;43.094;12.434;2023-07-29T01:44:23;98616.91;;;20.77;100.00
61573;BME280;47465;43.094;12.434;2023-07-29T01:46:49;98604.59;;;20.72;100.00
61573;BME280;47465;43.094;12.434;2023-07-29T01:49:15;98621.56;;;20.75;100.00
61573;BME280;47465;43.094;12.434;2023-07-29T01:51:41;98616.81;;;20.65;100.00
61573;BME280;47465;43.094;12.434;2023-07-29T01:54:07;98627.09;;;20.60;100.00
61573;BME280;47465;43.094;12.434;2023-07-29T01:56:33;98608.00;;;20.49;100.00
61573;BME280;47465;43.094;12.434;2023-07-29T01:59:00;98612.56;;;20.48;100.00
61573;BME280;47465;43.094;12.434;2023-07-29T02:01:26;98605.00;;;20.41;100.00
61573;BME280;47465;43.094;12.434;2023-07-29T02:03:52;98591.59;;;20.26;100.00
61573;BME280;47465;43.094;12.434;2023-07-29T02:06:20;98627.81;;;20.37;100.00
61573;BME280;47465;43.094;12.434;2023-07-29T02:08:46;98596.22;;;20.11;100.00
61573;BME280;47465;43.094;12.434;2023-07-29T02:11:12;98626.91;;;20.10;100.00
61573;BME280;47465;43.094;12.434;2023-07-29T02:13:38;98611.53;;;19.98;100.00
61573;BME280;47465;43.094;12.434;2023-07-29T02:16:05;98605.38;;;19.96;100.00
61573;BME280;47465;43.094;12.434;2023-07-29T02:18:31;98609.50;;;20.02;100.00
61573;BME280;47465;43.094;12.434;2023-07-29T02:20:57;98613.69;;;19.93;100.00
61573;BME280;47465;43.094;12.434;2023-07-29T02:23:23;98606.78;;;19.89;100.00
61573;BME280;47465;43.094;12.434;2023-07-29T02:25:50;98623.81;;;19.89;100.00
61573;BME280;47465;43.094;12.434;2023-07-29T02:28:15;98608.03;;;19.83;100.00
61573;BME280;47465;43.094;12.434;2023-07-29T02:30:42;98608.88;;;19.84;100.00
61573;BME280;47465;43.094;12.434;2023-07-29T02:33:11;98595.09;;;19.76;100.00
61573;BME280;47465;43.094;12.434;2023-07-29T02:35:37;98618.63;;;19.86;100.00
61573;BME280;47465;43.094;12.434;2023-07-29T02:38:03;98615.47;;;19.80;100.00
61573;BME280;47465;43.094;12.434;2023-07-29T02:40:29;98612.88;;;19.78;100.00
61573;BME280;47465;43.094;12.434;2023-07-29T02:42:55;98593.72;;;19.68;100.00
61573;BME280;47465;43.094;12.434;2023-07-29T02:45:20;98613.53;;;19.82;100.00
61573;BME280;47465;43.094;12.434;2023-07-29T02:47:46;98614.41;;;19.82;100.00
61573;BME280;47465;43.094;12.434;2023-07-29T02:50:14;98622.50;;;19.82;100.00
61573;BME280;47465;43.094;12.434;2023-07-29T02:52:40;98613.75;;;19.79;100.00
61573;BME280;47465;43.094;12.434;2023-07-29T02:55:06;98618.06;;;19.81;100.00
61573;BME280;47465;43.094;12.434;2023-07-29T02:57:32;98600.56;;;19.74;100.00
61573;BME280;47465;43.094;12.434;2023-07-29T02:59:58;98606.59;;;19.78;100.00
61573;BME280;47465;43.094;12.434;2023-07-29T03:02:23;98609.03;;;19.82;100.00
61573;BME280;47465;43.094;12.434;2023-07-29T03:04:49;98633.22;;;19.97;100.00
61573;BME280;47465;43.094;12.434;2023-07-29T03:07:17;98612.81;;;19.93;100.00
61573;BME280;47465;43.094;12.434;2023-07-29T03:09:43;98626.22;;;20.07;100.00
61573;BME280;47465;43.094;12.434;2023-07-29T03:12:09;98607.56;;;20.04;100.00
61573;BME280;47465;43.094;12.434;2023-07-29T03:14:35;98609.50;;;20.02;100.00
61573;BME280;47465;43.094;12.434;2023-07-29T03:17:02;98621.59;;;20.09;100.00
61573;BME280;47465;43.094;12.434;2023-07-29T03:19:29;98622.69;;;20.06;100.00
61573;BME280;47465;43.094;12.434;2023-07-29T03:21:55;98613.16;;;20.01;100.00
61573;BME280;47465;43.094;12.434;2023-07-29T03:24:22;98605.59;;;19.93;100.00
61573;BME280;47465;43.094;12.434;2023-07-29T03:26:48;98627.81;;;19.97;100.00
61573;BME280;47465;43.094;12.434;2023-07-29T03:29:14;98618.75;;;19.85;100.00
61573;BME280;47465;43.094;12.434;2023-07-29T03:31:40;98621.84;;;19.79;100.00
61573;BME280;47465;43.094;12.434;2023-07-29T03:34:06;98631.56;;;19.81;100.00
61573;BME280;47465;43.094;12.434;2023-07-29T03:36:32;98632.53;;;19.80;100.00
61573;BME280;47465;43.094;12.434;2023-07-29T03:38:58;98647.34;;;19.87;100.00
61573;BME280;47465;43.094;12.434;2023-07-29T03:41:25;98655.53;;;19.86;100.00
61573;BME280;47465;43.094;12.434;2023-07-29T03:43:51;98635.84;;;19.71;100.00
61573;BME280;47465;43.094;12.434;2023-07-29T03:46:17;98655.38;;;19.75;100.00
61573;BME280;47465;43.094;12.434;2023-07-29T03:48:45;98638.81;;;19.66;100.00
61573;BME280;47465;43.094;12.434;2023-07-29T03:51:11;98653.75;;;19.72;100.00
61573;BME280;47465;43.094;12.434;2023-07-29T03:53:36;98657.13;;;19.76;100.00
61573;BME280;47465;43.094;12.434;2023-07-29T03:56:02;98657.22;;;19.60;100.00
61573;BME280;47465;43.094;12.434;2023-07-29T03:58:30;98636.13;;;19.39;100.00
61573;BME280;47465;43.094;12.434;2023-07-29T04:00:55;98650.16;;;19.44;100.00
61573;BME280;47465;43.094;12.434;2023-07-29T04:03:21;98635.34;;;19.37;100.00
61573;BME280;47465;43.094;12.434;2023-07-29T04:05:47;98631.03;;;19.35;100.00
61573;BME280;47465;43.094;12.434;2023-07-29T04:08:13;98636.41;;;19.35;100.00
61573;BME280;47465;43.094;12.434;2023-07-29T04:10:39;98646.53;;;19.31;100.00
61573;BME280;47465;43.094;12.434;2023-07-29T04:13:05;98629.97;;;19.23;100.00
61573;BME280;47465;43.094;12.434;2023-07-29T04:15:32;98656.53;;;19.43;100.00
61573;BME280;47465;43.094;12.434;2023-07-29T04:17:58;98650.94;;;19.32;100.00
61573;BME280;47465;43.094;12.434;2023-07-29T04:20:24;98639.41;;;19.30;100.00
61573;BME280;47465;43.094;12.434;2023-07-29T04:22:50;98673.47;;;19.45;100.00
61573;BME280;47465;43.094;12.434;2023-07-29T04:25:16;98670.78;;;19.45;100.00
61573;BME280;47465;43.094;12.434;2023-07-29T04:27:42;98654.13;;;19.39;100.00
61573;BME280;47465;43.094;12.434;2023-07-29T04:30:08;98667.00;;;19.48;100.00
61573;BME280;47465;43.094;12.434;2023-07-29T04:32:35;98676.09;;;19.60;100.00
61573;BME280;47465;43.094;12.434;2023-07-29T04:35:01;98669.19;;;19.70;100.00
61573;BME280;47465;43.094;12.434;2023-07-29T04:37:27;98667.34;;;19.70;100.00
61573;BME280;47465;43.094;12.434;2023-07-29T04:39:53;98667.34;;;19.70;100.00
61573;BME280;47465;43.094;12.434;2023-07-29T04:42:19;98671.47;;;19.76;100.00
61573;BME280;47465;43.094;12.434;2023-07-29T04:44:45;98663.25;;;19.78;100.00
61573;BME280;47465;43.094;12.434;2023-07-29T04:47:10;98670.47;;;19.92;100.00
61573;BME280;47465;43.094;12.434;2023-07-29T04:49:38;98666.38;;;19.99;100.00
61573;BME280;47465;43.094;12.434;2023-07-29T04:52:04;98655.25;;;20.03;100.00
61573;BME280;47465;43.094;12.434;2023-07-29T04:54:30;98644.59;;;20.02;100.00
61573;BME280;47465;43.094;12.434;2023-07-29T04:56:56;98650.97;;;20.14;100.00
61573;BME280;47465;43.094;12.434;2023-07-29T04:59:22;98657.69;;;20.21;100.00
61573;BME280;47465;43.094;12.434;2023-07-29T05:01:48;98647.53;;;20.24;100.00
61573;BME280;47465;43.094;12.434;2023-07-29T05:04:13;98661.81;;;20.39;100.00
61573;BME280;47465;43.094;12.434;2023-07-29T05:06:41;98670.56;;;20.56;100.00
61573;BME280;47465;43.094;12.434;2023-07-29T05:09:13;98663.84;;;20.76;100.00
61573;BME280;47465;43.094;12.434;2023-07-29T05:11:40;98665.44;;;20.91;100.00
61573;BME280;47465;43.094;12.434;2023-07-29T05:14:05;98657.16;;;21.31;100.00
61573;BME280;47465;43.094;12.434;2023-07-29T05:16:31;98660.19;;;21.76;100.00
61573;BME280;47465;43.094;12.434;2023-07-29T05:18:57;98661.97;;;22.12;100.00
61573;BME280;47465;43.094;12.434;2023-07-29T05:21:23;98666.44;;;22.25;100.00
61573;BME280;47465;43.094;12.434;2023-07-29T05:23:50;98656.91;;;22.43;100.00
61573;BME280;47465;43.094;12.434;2023-07-29T05:26:16;98680.75;;;22.27;100.00
61573;BME280;47465;43.094;12.434;2023-07-29T05:28:42;98685.00;;;21.70;100.00
61573;BME280;47465;43.094;12.434;2023-07-29T05:31:08;98658.94;;;21.69;100.00
61573;BME280;47465;43.094;12.434;2023-07-29T05:33:34;98669.38;;;21.49;100.00
61573;BME280;47465;43.094;12.434;2023-07-29T05:36:01;98664.81;;;21.37;100.00
61573;BME280;47465;43.094;12.434;2023-07-29T05:38:27;98663.13;;;21.73;100.00
61573;BME280;47465;43.094;12.434;2023-07-29T05:40:55;98663.88;;;22.23;100.00
61573;BME280;47465;43.094;12.434;2023-07-29T05:43:20;98651.13;;;22.48;100.00
61573;BME280;47465;43.094;12.434;2023-07-29T05:45:46;98649.72;;;22.77;100.00
61573;BME280;47465;43.094;12.434;2023-07-29T05:48:12;98678.34;;;23.15;100.00
61573;BME280;47465;43.094;12.434;2023-07-29T05:50:38;98670.28;;;23.59;100.00
61573;BME280;47465;43.094;12.434;2023-07-29T05:53:04;98663.00;;;23.71;100.00
61573;BME280;47465;43.094;12.434;2023-07-29T05:55:30;98675.63;;;23.27;100.00
61573;BME280;47465;43.094;12.434;2023-07-29T05:57:57;98678.84;;;23.43;100.00
61573;BME280;47465;43.094;12.434;2023-07-29T06:00:23;98681.06;;;23.27;100.00
61573;BME280;47465;43.094;12.434;2023-07-29T06:02:49;98671.69;;;23.42;100.00
61573;BME280;47465;43.094;12.434;2023-07-29T06:05:15;98668.09;;;23.53;100.00
61573;BME280;47465;43.094;12.434;2023-07-29T06:07:40;98659.44;;;23.59;100.00
61573;BME280;47465;43.094;12.434;2023-07-29T06:10:09;98665.25;;;23.77;100.00
61573;BME280;47465;43.094;12.434;2023-07-29T06:12:37;98671.41;;;23.79;100.00
61573;BME280;47465;43.094;12.434;2023-07-29T06:15:05;98679.25;;;23.93;100.00
61573;BME280;47465;43.094;12.434;2023-07-29T06:17:31;98671.72;;;24.29;100.00
61573;BME280;47465;43.094;12.434;2023-07-29T06:19:57;98658.25;;;24.28;100.00
61573;BME280;47465;43.094;12.434;2023-07-29T06:22:23;98678.34;;;24.36;100.00
61573;BME280;47465;43.094;12.434;2023-07-29T06:24:49;98656.53;;;24.48;100.00
61573;BME280;47465;43.094;12.434;2023-07-29T06:27:14;98666.84;;;24.65;100.00
61573;BME280;47465;43.094;12.434;2023-07-29T06:29:40;98674.88;;;24.88;100.00
61573;BME280;47465;43.094;12.434;2023-07-29T06:32:08;98673.41;;;24.84;97.47
61573;BME280;47465;43.094;12.434;2023-07-29T06:34:34;98678.25;;;25.11;97.86
61573;BME280;47465;43.094;12.434;2023-07-29T06:36:59;98668.28;;;25.11;97.72
61573;BME280;47465;43.094;12.434;2023-07-29T06:39:25;98678.06;;;25.02;98.66
61573;BME280;47465;43.094;12.434;2023-07-29T06:41:51;98667.91;;;25.05;98.22
61573;BME280;47465;43.094;12.434;2023-07-29T06:44:17;98680.56;;;25.15;97.83
61573;BME280;47465;43.094;12.434;2023-07-29T06:46:43;98664.81;;;25.09;96.37
61573;BME280;47465;43.094;12.434;2023-07-29T06:49:10;98677.13;;;25.13;96.22
61573;BME280;47465;43.094;12.434;2023-07-29T06:51:36;98685.28;;;25.13;95.00
61573;BME280;47465;43.094;12.434;2023-07-29T06:54:02;98674.78;;;25.20;96.28
61573;BME280;47465;43.094;12.434;2023-07-29T06:56:28;98683.56;;;25.33;94.35
61573;BME280;47465;43.094;12.434;2023-07-29T06:58:54;98676.69;;;25.39;95.44
61573;BME280;47465;43.094;12.434;2023-07-29T07:01:20;98658.25;;;25.42;95.63
61573;BME280;47465;43.094;12.434;2023-07-29T07:03:46;98673.22;;;25.68;94.05
61573;BME280;47465;43.094;12.434;2023-07-29T07:06:13;98662.22;;;25.29;94.21
61573;BME280;47465;43.094;12.434;2023-07-29T07:08:42;98686.72;;;25.38;96.16
61573;BME280;47465;43.094;12.434;2023-07-29T07:11:09;98674.03;;;25.58;95.12
61573;BME280;47465;43.094;12.434;2023-07-29T07:13:36;98644.25;;;25.67;93.86
61573;BME280;47465;43.094;12.434;2023-07-29T07:16:04;98646.88;;;25.88;93.10
61573;BME280;47465;43.094;12.434;2023-07-29T07:18:30;98642.41;;;25.87;92.26
61573;BME280;47465;43.094;12.434;2023-07-29T07:20:59;98645.41;;;25.74;93.14
61573;BME280;47465;43.094;12.434;2023-07-29T07:23:27;98663.59;;;25.64;93.88
61573;BME280;47465;43.094;12.434;2023-07-29T07:25:53;98651.69;;;25.65;94.30
61573;BME280;47465;43.094;12.434;2023-07-29T07:28:19;98657.16;;;25.65;95.65
61573;BME280;47465;43.094;12.434;2023-07-29T07:30:45;98645.47;;;25.93;94.98
61573;BME280;47465;43.094;12.434;2023-07-29T07:33:11;98639.44;;;26.19;92.27
61573;BME280;47465;43.094;12.434;2023-07-29T07:35:37;98664.69;;;26.50;90.81
61573;BME280;47465;43.094;12.434;2023-07-29T07:38:04;98637.97;;;26.54;90.82
61573;BME280;47465;43.094;12.434;2023-07-29T07:40:31;98628.56;;;26.19;90.23
61573;BME280;47465;43.094;12.434;2023-07-29T07:42:57;98635.28;;;26.34;89.86
61573;BME280;47465;43.094;12.434;2023-07-29T07:45:23;98658.22;;;26.71;90.19
61573;BME280;47465;43.094;12.434;2023-07-29T07:47:51;98665.56;;;26.51;89.91
61573;BME280;47465;43.094;12.434;2023-07-29T07:50:17;98661.25;;;26.19;92.57
61573;BME280;47465;43.094;12.434;2023-07-29T07:52:43;98659.81;;;26.44;91.42
61573;BME280;47465;43.094;12.434;2023-07-29T07:55:09;98661.00;;;26.22;91.09
61573;BME280;47465;43.094;12.434;2023-07-29T07:57:36;98645.34;;;26.05;93.24
61573;BME280;47465;43.094;12.434;2023-07-29T08:00:03;98662.13;;;26.68;90.71
61573;BME280;47465;43.094;12.434;2023-07-29T08:02:33;98647.03;;;26.44;89.29
61573;BME280;47465;43.094;12.434;2023-07-29T08:04:58;98645.19;;;26.35;89.19
61573;BME280;47465;43.094;12.434;2023-07-29T08:07:24;98646.34;;;26.33;89.00
61573;BME280;47465;43.094;12.434;2023-07-29T08:09:50;98653.78;;;26.40;90.07
61573;BME280;47465;43.094;12.434;2023-07-29T08:12:16;98639.72;;;26.74;88.71
61573;BME280;47465;43.094;12.434;2023-07-29T08:14:43;98637.31;;;26.99;88.96
61573;BME280;47465;43.094;12.434;2023-07-29T08:17:09;98648.84;;;27.30;86.82
61573;BME280;47465;43.094;12.434;2023-07-29T08:19:36;98654.47;;;27.56;86.62
61573;BME280;47465;43.094;12.434;2023-07-29T08:22:03;98654.22;;;27.50;84.42
61573;BME280;47465;43.094;12.434;2023-07-29T08:24:29;98657.78;;;27.78;85.33
61573;BME280;47465;43.094;12.434;2023-07-29T08:26:55;98642.31;;;27.96;82.13
61573;BME280;47465;43.094;12.434;2023-07-29T08:29:21;98662.06;;;28.08;83.69
61573;BME280;47465;43.094;12.434;2023-07-29T08:31:48;98639.50;;;28.24;80.99
61573;BME280;47465;43.094;12.434;2023-07-29T08:34:16;98639.00;;;28.46;80.20
61573;BME280;47465;43.094;12.434;2023-07-29T08:36:42;98622.38;;;27.03;84.20
61573;BME280;47465;43.094;12.434;2023-07-29T08:39:08;98625.31;;;27.29;84.79
61573;BME280;47465;43.094;12.434;2023-07-29T08:41:39;98625.22;;;27.66;84.62
61573;BME280;47465;43.094;12.434;2023-07-29T08:44:11;98628.28;;;28.09;81.47
61573;BME280;47465;43.094;12.434;2023-07-29T08:46:39;98636.38;;;28.55;81.45
61573;BME280;47465;43.094;12.434;2023-07-29T08:49:07;98623.81;;;28.70;79.84
61573;BME280;47465;43.094;12.434;2023-07-29T08:51:33;98625.94;;;28.76;77.99
61573;BME280;47465;43.094;12.434;2023-07-29T08:54:00;98612.72;;;28.72;77.92
61573;BME280;47465;43.094;12.434;2023-07-29T08:56:27;98639.47;;;28.60;79.09
61573;BME280;47465;43.094;12.434;2023-07-29T08:58:53;98633.31;;;28.58;79.34
61573;BME280;47465;43.094;12.434;2023-07-29T09:01:20;98637.09;;;28.83;80.51
61573;BME280;47465;43.094;12.434;2023-07-29T09:03:46;98623.19;;;28.76;78.26
61573;BME280;47465;43.094;12.434;2023-07-29T09:06:14;98631.22;;;29.04;77.75
61573;BME280;47465;43.094;12.434;2023-07-29T09:08:40;98601.16;;;29.12;77.69
61573;BME280;47465;43.094;12.434;2023-07-29T09:11:06;98626.75;;;29.29;76.47
61573;BME280;47465;43.094;12.434;2023-07-29T09:13:32;98616.09;;;29.60;74.67
61573;BME280;47465;43.094;12.434;2023-07-29T09:15:58;98610.63;;;29.68;74.71
61573;BME280;47465;43.094;12.434;2023-07-29T09:18:26;98610.78;;;29.59;74.24
61573;BME280;47465;43.094;12.434;2023-07-29T09:20:53;98613.06;;;29.72;74.51
61573;BME280;47465;43.094;12.434;2023-07-29T09:23:20;98600.44;;;29.87;73.23
61573;BME280;47465;43.094;12.434;2023-07-29T09:25:46;98622.25;;;30.29;71.60
61573;BME280;47465;43.094;12.434;2023-07-29T09:28:14;98592.22;;;30.12;68.57
61573;BME280;47465;43.094;12.434;2023-07-29T09:30:41;98609.06;;;30.41;69.62
61573;BME280;47465;43.094;12.434;2023-07-29T09:33:08;98611.44;;;30.53;59.23
61573;BME280;47465;43.094;12.434;2023-07-29T09:35:35;98611.47;;;29.18;60.72
61573;BME280;47465;43.094;12.434;2023-07-29T09:38:01;98617.31;;;28.97;65.42
61573;BME280;47465;43.094;12.434;2023-07-29T09:40:34;98614.03;;;29.54;59.29
61573;BME280;47465;43.094;12.434;2023-07-29T09:43:00;98598.56;;;29.96;59.25
61573;BME280;47465;43.094;12.434;2023-07-29T09:45:27;98627.22;;;30.42;57.76
61573;BME280;47465;43.094;12.434;2023-07-29T09:47:54;98601.84;;;30.65;56.39
61573;BME280;47465;43.094;12.434;2023-07-29T09:50:23;98627.06;;;30.52;57.14
61573;BME280;47465;43.094;12.434;2023-07-29T09:52:51;98614.56;;;29.66;59.08
61573;BME280;47465;43.094;12.434;2023-07-29T09:55:17;98626.97;;;29.78;58.14
61573;BME280;47465;43.094;12.434;2023-07-29T09:57:45;98604.53;;;29.83;57.88
61573;BME280;47465;43.094;12.434;2023-07-29T10:00:12;98615.41;;;29.58;57.12
61573;BME280;47465;43.094;12.434;2023-07-29T10:02:39;98601.59;;;29.76;58.38
61573;BME280;47465;43.094;12.434;2023-07-29T10:05:06;98611.25;;;30.21;57.21
61573;BME280;47465;43.094;12.434;2023-07-29T10:07:33;98606.47;;;30.56;55.03
61573;BME280;47465;43.094;12.434;2023-07-29T10:10:02;98600.81;;;30.49;55.32
61573;BME280;47465;43.094;12.434;2023-07-29T10:12:29;98616.28;;;29.24;58.50
61573;BME280;47465;43.094;12.434;2023-07-29T10:14:59;98596.69;;;28.77;59.53
61573;BME280;47465;43.094;12.434;2023-07-29T10:17:27;98596.94;;;28.03;63.04
61573;BME280;47465;43.094;12.434;2023-07-29T10:19:54;98596.41;;;28.62;60.56
61573;BME280;47465;43.094;12.434;2023-07-29T10:22:25;98614.06;;;29.20;58.23
61573;BME280;47465;43.094;12.434;2023-07-29T10:24:54;98596.88;;;29.52;58.77
61573;BME280;47465;43.094;12.434;2023-07-29T10:27:20;98603.53;;;30.25;56.85
61573;BME280;47465;43.094;12.434;2023-07-29T10:29:47;98600.41;;;29.79;55.17
61573;BME280;47465;43.094;12.434;2023-07-29T10:32:16;98586.91;;;30.18;56.68
61573;BME280;47465;43.094;12.434;2023-07-29T10:34:42;98586.00;;;30.91;52.52
61573;BME280;47465;43.094;12.434;2023-07-29T10:37:09;98593.88;;;31.50;51.01
61573;BME280;47465;43.094;12.434;2023-07-29T10:39:38;98578.41;;;31.81;47.50
61573;BME280;47465;43.094;12.434;2023-07-29T10:42:06;98593.25;;;31.71;46.02
61573;BME280;47465;43.094;12.434;2023-07-29T10:44:49;98581.59;;;31.92;46.11
61573;BME280;47465;43.094;12.434;2023-07-29T10:47:17;98584.41;;;32.07;46.17
61573;BME280;47465;43.094;12.434;2023-07-29T10:49:44;98599.75;;;31.47;45.35
61573;BME280;47465;43.094;12.434;2023-07-29T10:52:13;98577.47;;;30.62;47.37
61573;BME280;47465;43.094;12.434;2023-07-29T10:54:42;98589.97;;;30.89;49.92
61573;BME280;47465;43.094;12.434;2023-07-29T10:57:12;98579.44;;;31.40;47.73
61573;BME280;47465;43.094;12.434;2023-07-29T10:59:39;98581.78;;;31.60;47.22
61573;BME280;47465;43.094;12.434;2023-07-29T11:02:12;98585.00;;;31.32;45.24
61573;BME280;47465;43.094;12.434;2023-07-29T11:04:49;98585.09;;;31.55;44.08
61573;BME280;47465;43.094;12.434;2023-07-29T11:07:22;98571.06;;;31.73;45.95
61573;BME280;47465;43.094;12.434;2023-07-29T11:09:59;98577.56;;;31.80;45.01
61573;BME280;47465;43.094;12.434;2023-07-29T11:12:43;98583.22;;;31.79;44.79
61573;BME280;47465;43.094;12.434;2023-07-29T11:15:16;98576.31;;;31.83;43.79
61573;BME280;47465;43.094;12.434;2023-07-29T11:17:44;98558.53;;;32.02;44.45
61573;BME280;47465;43.094;12.434;2023-07-29T11:20:12;98572.22;;;32.10;43.10
61573;BME280;47465;43.094;12.434;2023-07-29T11:22:39;98559.28;;;31.64;44.39
61573;BME280;47465;43.094;12.434;2023-07-29T11:25:07;98563.72;;;30.78;45.11
61573;BME280;47465;43.094;12.434;2023-07-29T11:27:33;98562.91;;;30.04;45.64
61573;BME280;47465;43.094;12.434;2023-07-29T11:30:00;98556.00;;;29.67;46.55
61573;BME280;47465;43.094;12.434;2023-07-29T11:32:27;98563.91;;;29.27;49.06
61573;BME280;47465;43.094;12.434;2023-07-29T11:34:53;98559.81;;;29.74;48.76
61573;BME280;47465;43.094;12.434;2023-07-29T11:37:21;98541.06;;;29.61;49.71
61573;BME280;47465;43.094;12.434;2023-07-29T11:39:47;98560.94;;;29.63;49.24
61573;BME280;47465;43.094;12.434;2023-07-29T11:42:14;98556.53;;;29.71;48.62
61573;BME280;47465;43.094;12.434;2023-07-29T11:44:40;98566.81;;;29.18;47.55
61573;BME280;47465;43.094;12.434;2023-07-29T11:47:06;98563.19;;;29.09;48.84
61573;BME280;47465;43.094;12.434;2023-07-29T11:49:33;98540.94;;;29.12;50.14
61573;BME280;47465;43.094;12.434;2023-07-29T11:51:59;98524.63;;;29.61;50.22
61573;BME280;47465;43.094;12.434;2023-07-29T11:54:27;98547.75;;;29.59;48.77
61573;BME280;47465;43.094;12.434;2023-07-29T11:56:53;98548.50;;;30.10;47.44
61573;BME280;47465;43.094;12.434;2023-07-29T11:59:19;98547.31;;;30.04;48.14
61573;BME280;47465;43.094;12.434;2023-07-29T12:01:45;98533.28;;;30.32;46.84
61573;BME280;47465;43.094;12.434;2023-07-29T12:04:12;98528.28;;;30.03;46.94
61573;BME280;47465;43.094;12.434;2023-07-29T12:06:39;98547.25;;;30.78;46.18
61573;BME280;47465;43.094;12.434;2023-07-29T12:09:05;98540.13;;;31.08;45.77
61573;BME280;47465;43.094;12.434;2023-07-29T12:11:33;98530.88;;;31.49;44.98
61573;BME280;47465;43.094;12.434;2023-07-29T12:13:59;98522.91;;;31.77;44.05
61573;BME280;47465;43.094;12.434;2023-07-29T12:16:25;98521.56;;;31.50;44.01
61573;BME280;47465;43.094;12.434;2023-07-29T12:18:51;98516.47;;;31.39;43.83
61573;BME280;47465;43.094;12.434;2023-07-29T12:21:17;98519.31;;;31.77;44.32
61573;BME280;47465;43.094;12.434;2023-07-29T12:23:44;98520.16;;;31.77;44.44
61573;BME280;47465;43.094;12.434;2023-07-29T12:26:10;98531.09;;;31.31;45.56
61573;BME280;47465;43.094;12.434;2023-07-29T12:28:37;98532.81;;;31.32;44.14
61573;BME280;47465;43.094;12.434;2023-07-29T12:31:07;98520.88;;;31.17;45.48
61573;BME280;47465;43.094;12.434;2023-07-29T12:33:35;98519.72;;;31.42;45.31
61573;BME280;47465;43.094;12.434;2023-07-29T12:36:01;98519.53;;;31.75;44.46
61573;BME280;47465;43.094;12.434;2023-07-29T12:38:28;98521.66;;;31.65;44.34
61573;BME280;47465;43.094;12.434;2023-07-29T12:40:54;98515.22;;;31.49;45.38
61573;BME280;47465;43.094;12.434;2023-07-29T12:43:21;98526.09;;;31.43;44.73
61573;BME280;47465;43.094;12.434;2023-07-29T12:45:50;98522.56;;;31.80;44.59